Time;durP1;ratioP1;P1;durP2;ratioP2;P2;SDS_P1;SDS_P2;PMS_P1;PMS_P2;Temp;Humidity;BMP_temperature;BMP_pressure;BME280_temperature;BME280_humidity;BME280_pressure;Samples;Min_cycle;Max_cycle;Signal;HPM_P1;HPM_P2
2022/01/20 00:01:46;;;;;;;;;;;4.40;99.90;;;;;;4156389;28;20391;-51
2022/01/20 00:03:50;;;;;;;;;;;4.20;99.90;;;;;;4155524;28;19929;-50
2022/01/20 00:26:30;;;;;;;;;;;4.30;99.90;;;;;;4151338;28;20024;-50
2022/01/20 00:28:44;;;;;;;;;;;4.40;99.90;;;;;;4142253;28;19937;-47
2022/01/20 00:30:52;;;;;;;;;;;4.40;99.90;;;;;;4153217;28;19929;-50
2022/01/20 00:33:03;;;;;;;;;;;4.50;99.90;;;;;;4156147;28;20360;-48
2022/01/20 00:35:20;;;;;;;;;;;4.60;99.90;;;;;;4174888;28;19924;-50
2022/01/20 00:37:23;;;;;;;;;;;4.60;99.90;;;;;;4228299;27;19955;-48
2022/01/20 00:39:26;;;;;;;;;;;4.60;99.90;;;;;;4234400;27;19971;-47
2022/01/20 00:41:28;;;;;;;;;;;4.70;99.90;;;;;;4232785;27;19935;-49
2022/01/20 00:43:30;;;;;;;;;;;4.80;99.90;;;;;;4235975;27;19962;-51
2022/01/20 00:45:31;;;;;;;;;;;4.90;99.90;;;;;;4241688;27;19924;-48
2022/01/20 00:47:34;;;;;;;;;;;5.00;99.90;;;;;;4231014;27;20001;-48
2022/01/20 00:49:36;;;;;;;;;;;5.00;99.90;;;;;;4239984;27;19963;-50
2022/01/20 00:51:38;;;;;;;;;;;5.00;99.90;;;;;;4230381;27;20027;-50
2022/01/20 00:53:44;;;;;;;;;;;5.20;99.90;;;;;;4230460;27;19923;-51
2022/01/20 00:55:46;;;;;;;;;;;5.20;99.90;;;;;;4235464;27;19927;-49
2022/01/20 00:57:48;;;;;;;;;;;5.40;99.90;;;;;;4242654;27;20362;-51
2022/01/20 00:59:50;;;;;;;;;;;5.50;99.90;;;;;;4228939;27;20011;-52
2022/01/20 01:01:52;;;;;;;;;;;5.50;99.90;;;;;;4239231;27;20497;-48
2022/01/20 01:03:54;;;;;;;;;;;5.60;99.90;;;;;;4234609;27;19966;-52
2022/01/20 01:06:11;;;;;;;;;;;5.60;99.90;;;;;;4239065;27;19930;-49
2022/01/20 01:08:13;;;;;;;;;;;5.60;99.90;;;;;;4238446;27;19973;-51
2022/01/20 01:10:29;;;;;;;;;;;5.60;99.90;;;;;;4236137;27;19959;-51
2022/01/20 01:12:48;;;;;;;;;;;5.60;99.90;;;;;;4240093;27;19959;-50
2022/01/20 01:14:52;;;;;;;;;;;5.50;99.90;;;;;;4232796;27;19935;-50
2022/01/20 01:21:44;;;;;;;;;;;5.50;99.90;;;;;;4230026;28;19928;-50
2022/01/20 01:23:47;;;;;;;;;;;5.60;99.90;;;;;;4211645;28;19932;-50
2022/01/20 01:25:49;;;;;;;;;;;5.60;99.90;;;;;;4228582;28;19963;-48
2022/01/20 01:27:51;;;;;;;;;;;5.50;99.90;;;;;;4233087;28;20002;-51
2022/01/20 01:32:06;;;;;;;;;;;5.50;99.90;;;;;;4233595;28;19935;-51
2022/01/20 01:34:12;;;;;;;;;;;5.40;99.90;;;;;;4231919;28;20043;-50
2022/01/20 01:36:18;;;;;;;;;;;5.30;99.90;;;;;;4233114;27;20636;-48
2022/01/20 01:38:26;;;;;;;;;;;5.20;99.90;;;;;;4237906;28;20014;-49
2022/01/20 01:40:29;;;;;;;;;;;5.20;99.90;;;;;;4235557;28;20352;-50
2022/01/20 01:42:38;;;;;;;;;;;5.20;99.90;;;;;;4216657;28;19970;-50
2022/01/20 01:44:40;;;;;;;;;;;5.20;99.90;;;;;;4213883;28;19962;-51
2022/01/20 01:46:43;;;;;;;;;;;5.20;99.90;;;;;;4236401;28;19959;-52
2022/01/20 01:48:45;;;;;;;;;;;5.20;99.90;;;;;;4237868;28;19923;-50
2022/01/20 01:50:48;;;;;;;;;;;5.20;99.90;;;;;;4231908;28;19923;-50
2022/01/20 01:52:50;;;;;;;;;;;5.30;99.90;;;;;;4227576;28;19924;-50
2022/01/20 01:54:52;;;;;;;;;;;5.30;99.90;;;;;;4231470;28;20490;-49
2022/01/20 01:56:54;;;;;;;;;;;5.20;99.90;;;;;;4208980;28;19951;-50
2022/01/20 01:58:56;;;;;;;;;;;5.20;99.90;;;;;;4232340;28;19923;-51
2022/01/20 02:00:58;;;;;;;;;;;5.20;99.90;;;;;;4229517;28;19970;-51
2022/01/20 02:03:00;;;;;;;;;;;5.00;99.90;;;;;;4228000;28;19931;-51
2022/01/20 02:05:04;;;;;;;;;;;5.00;99.90;;;;;;4243015;28;20014;-48
2022/01/20 02:07:35;;;;;;;;;;;4.90;99.90;;;;;;4235573;28;20396;-51
2022/01/20 02:19:00;;;;;;;;;;;4.80;99.90;;;;;;4237584;28;19959;-51
2022/01/20 02:21:04;;;;;;;;;;;4.80;99.90;;;;;;4227341;28;19985;-51
2022/01/20 02:23:06;;;;;;;;;;;4.80;99.90;;;;;;4233306;27;19943;-51
2022/01/20 02:25:27;;;;;;;;;;;4.70;99.90;;;;;;4242666;27;19963;-51
2022/01/20 02:27:29;;;;;;;;;;;4.70;99.90;;;;;;4239072;27;19973;-52
2022/01/20 02:29:31;;;;;;;;;;;4.70;99.90;;;;;;4245378;27;19927;-52
2022/01/20 02:31:33;;;;;;;;;;;4.70;99.90;;;;;;4238779;27;20431;-51
2022/01/20 02:33:35;;;;;;;;;;;4.60;99.90;;;;;;4244386;27;19923;-52
2022/01/20 02:35:38;;;;;;;;;;;4.60;99.90;;;;;;4232726;27;20009;-52
2022/01/20 02:37:43;;;;;;;;;;;4.60;99.90;;;;;;4245089;27;19924;-52
2022/01/20 02:40:03;;;;;;;;;;;4.50;99.90;;;;;;4235350;27;19923;-50
2022/01/20 02:46:47;;;;;;;;;;;4.40;99.90;;;;;;4244069;27;20027;-51
2022/01/20 02:48:50;;;;;;;;;;;4.40;99.90;;;;;;4219096;28;20026;-50
2022/01/20 02:50:52;;;;;;;;;;;4.30;99.90;;;;;;4242932;27;19935;-52
2022/01/20 02:52:54;;;;;;;;;;;4.30;99.90;;;;;;4237446;27;19973;-52
2022/01/20 02:54:56;;;;;;;;;;;4.30;99.90;;;;;;4244568;27;19949;-50
2022/01/20 02:56:58;;;;;;;;;;;4.40;99.90;;;;;;4238922;27;19974;-50
2022/01/20 02:59:00;;;;;;;;;;;4.40;99.90;;;;;;4244144;27;19967;-51
2022/01/20 03:01:03;;;;;;;;;;;4.40;99.90;;;;;;4228609;28;19923;-51
2022/01/20 03:03:05;;;;;;;;;;;4.40;99.90;;;;;;4221609;27;19966;-51
2022/01/20 03:05:07;;;;;;;;;;;4.30;99.90;;;;;;4237418;27;19933;-49
2022/01/20 03:07:09;;;;;;;;;;;4.20;99.90;;;;;;4242402;27;19932;-49
2022/01/20 03:09:11;;;;;;;;;;;4.20;99.90;;;;;;4235677;27;20014;-49
2022/01/20 03:11:13;;;;;;;;;;;4.10;99.90;;;;;;4241709;27;19963;-49
2022/01/20 03:13:15;;;;;;;;;;;4.10;99.90;;;;;;4230362;27;20160;-52
2022/01/20 03:15:16;;;;;;;;;;;4.10;99.90;;;;;;4233454;27;19973;-51
2022/01/20 03:17:18;;;;;;;;;;;4.10;99.90;;;;;;4240029;27;19949;-51
2022/01/20 03:19:20;;;;;;;;;;;4.10;99.90;;;;;;4234304;27;19934;-50
2022/01/20 03:21:22;;;;;;;;;;;4.10;99.90;;;;;;4237934;27;20010;-52
2022/01/20 03:23:24;;;;;;;;;;;4.10;99.90;;;;;;4224308;27;19924;-51
2022/01/20 03:25:26;;;;;;;;;;;4.10;99.90;;;;;;4239363;27;20409;-51
2022/01/20 03:27:28;;;;;;;;;;;4.00;99.90;;;;;;4242291;27;20127;-51
2022/01/20 03:29:30;;;;;;;;;;;3.80;99.90;;;;;;4228198;28;19982;-53
2022/01/20 03:31:33;;;;;;;;;;;3.70;99.90;;;;;;4234368;27;19934;-52
2022/01/20 03:33:35;;;;;;;;;;;3.60;99.90;;;;;;4234894;27;19928;-53
2022/01/20 03:35:37;;;;;;;;;;;3.60;99.90;;;;;;4240800;27;19995;-53
2022/01/20 03:37:39;;;;;;;;;;;3.70;99.90;;;;;;4240029;27;20002;-53
2022/01/20 03:39:41;;;;;;;;;;;3.80;99.90;;;;;;4236516;27;20391;-53
2022/01/20 03:41:43;;;;;;;;;;;3.80;99.90;;;;;;4241942;27;20361;-52
2022/01/20 03:43:46;;;;;;;;;;;3.90;99.90;;;;;;4236470;27;19930;-52
2022/01/20 03:45:54;;;;;;;;;;;4.00;99.90;;;;;;4231206;27;19928;-52
2022/01/20 03:48:05;;;;;;;;;;;4.00;99.90;;;;;;4232041;27;20388;-52
2022/01/20 03:50:59;;;;;;;;;;;3.90;99.90;;;;;;4242123;27;19955;-52
2022/01/20 03:52:29;;;;;;;;;;;3.80;99.90;;;;;;4231991;27;20379;-53
2022/01/20 03:54:31;;;;;;;;;;;3.80;99.90;;;;;;4228609;28;19924;-52
2022/01/20 03:56:33;;;;;;;;;;;3.90;99.90;;;;;;4236297;27;19931;-51
2022/01/20 03:58:35;;;;;;;;;;;3.90;99.90;;;;;;4228453;28;19927;-52
2022/01/20 04:00:37;;;;;;;;;;;3.90;99.90;;;;;;4233268;27;20035;-52
2022/01/20 04:02:39;;;;;;;;;;;4.00;99.90;;;;;;4235559;27;20349;-51
2022/01/20 04:04:41;;;;;;;;;;;4.10;99.90;;;;;;4233609;27;19952;-51
2022/01/20 04:06:48;;;;;;;;;;;4.10;99.90;;;;;;4244285;27;20022;-51
2022/01/20 04:08:58;;;;;;;;;;;4.10;99.90;;;;;;4201717;28;20094;-53
2022/01/20 04:11:00;;;;;;;;;;;4.20;99.90;;;;;;4243411;27;19977;-52
2022/01/20 04:13:02;;;;;;;;;;;4.30;99.90;;;;;;4232365;27;20439;-49
2022/01/20 04:15:08;;;;;;;;;;;4.30;99.90;;;;;;4238364;27;19927;-51
2022/01/20 04:17:15;;;;;;;;;;;4.40;99.90;;;;;;4234193;27;19932;-53
2022/01/20 04:19:17;;;;;;;;;;;4.40;99.90;;;;;;4240884;27;20029;-51
2022/01/20 04:21:20;;;;;;;;;;;4.40;99.90;;;;;;4235886;27;20413;-51
2022/01/20 04:23:22;;;;;;;;;;;4.40;99.90;;;;;;4231607;27;20013;-53
2022/01/20 04:25:25;;;;;;;;;;;4.40;99.90;;;;;;4236439;27;19953;-53
2022/01/20 04:27:27;;;;;;;;;;;4.40;99.90;;;;;;4240872;27;20010;-52
2022/01/20 04:29:28;;;;;;;;;;;4.40;99.90;;;;;;4239103;27;19950;-52
2022/01/20 04:31:31;;;;;;;;;;;4.30;99.90;;;;;;4242762;27;20346;-52
2022/01/20 04:33:33;;;;;;;;;;;4.20;99.90;;;;;;4232095;27;20055;-51
2022/01/20 04:35:35;;;;;;;;;;;4.20;99.90;;;;;;4234775;27;20407;-51
2022/01/20 04:37:37;;;;;;;;;;;4.20;99.90;;;;;;4236724;27;19930;-51
2022/01/20 04:39:48;;;;;;;;;;;4.10;99.90;;;;;;4243897;27;19927;-51
2022/01/20 04:41:51;;;;;;;;;;;4.10;99.90;;;;;;4230182;27;19935;-51
2022/01/20 04:43:53;;;;;;;;;;;4.10;99.90;;;;;;4228044;27;19931;-52
2022/01/20 04:46:04;;;;;;;;;;;4.10;99.90;;;;;;4237380;27;19972;-51
2022/01/20 04:57:29;;;;;;;;;;;4.50;99.90;;;;;;4234672;27;19934;-51
2022/01/20 04:59:31;;;;;;;;;;;4.70;99.90;;;;;;4243572;27;19931;-51
2022/01/20 05:01:33;;;;;;;;;;;4.70;99.90;;;;;;4229597;27;19928;-51
2022/01/20 05:03:35;;;;;;;;;;;4.70;99.90;;;;;;4237341;27;20223;-51
2022/01/20 05:05:37;;;;;;;;;;;4.60;99.90;;;;;;4214766;27;20023;-52
2022/01/20 05:07:40;;;;;;;;;;;4.60;99.90;;;;;;4242440;27;19927;-52
2022/01/20 05:09:42;;;;;;;;;;;4.50;99.90;;;;;;4228788;27;20025;-52
2022/01/20 05:11:49;;;;;;;;;;;4.70;99.90;;;;;;4229461;27;19923;-50
2022/01/20 05:13:54;;;;;;;;;;;4.60;99.90;;;;;;4216332;28;19924;-52
2022/01/20 05:15:56;;;;;;;;;;;4.60;99.90;;;;;;4241602;27;19934;-53
2022/01/20 05:17:58;;;;;;;;;;;4.50;99.90;;;;;;4231863;28;19976;-52
2022/01/20 05:20:00;;;;;;;;;;;4.50;99.90;;;;;;4232655;28;20366;-52
2022/01/20 05:22:02;;;;;;;;;;;4.50;99.90;;;;;;4214913;28;19931;-52
2022/01/20 05:24:04;;;;;;;;;;;4.50;99.90;;;;;;4229945;28;20010;-52
2022/01/20 05:26:06;;;;;;;;;;;4.50;99.90;;;;;;4237355;28;20018;-52
2022/01/20 05:28:07;;;;;;;;;;;4.50;99.90;;;;;;4241587;28;20403;-50
2022/01/20 05:30:12;;;;;;;;;;;4.80;99.90;;;;;;4230307;28;19971;-52
2022/01/20 05:32:13;;;;;;;;;;;4.80;99.90;;;;;;4235957;28;19970;-51
2022/01/20 05:34:16;;;;;;;;;;;4.80;99.90;;;;;;4236512;28;20383;-52
2022/01/20 05:36:18;;;;;;;;;;;4.80;99.90;;;;;;4239479;28;19927;-52
2022/01/20 05:38:20;;;;;;;;;;;4.80;99.90;;;;;;4236823;28;19938;-53
2022/01/20 05:40:21;;;;;;;;;;;4.90;99.90;;;;;;4243516;28;20019;-52
2022/01/20 05:42:23;;;;;;;;;;;4.90;99.90;;;;;;4227540;28;19935;-52
2022/01/20 05:44:25;;;;;;;;;;;4.90;99.90;;;;;;4231428;28;19931;-53
2022/01/20 05:46:35;;;;;;;;;;;4.90;99.90;;;;;;4229698;28;20035;-52
2022/01/20 05:48:45;;;;;;;;;;;4.90;99.90;;;;;;4236119;28;19972;-52
2022/01/20 05:50:47;;;;;;;;;;;4.80;99.90;;;;;;4235242;28;20371;-53
2022/01/20 05:52:49;;;;;;;;;;;4.80;99.90;;;;;;4240671;28;19972;-50
2022/01/20 05:54:51;;;;;;;;;;;4.90;99.90;;;;;;4231001;28;19934;-50
2022/01/20 05:56:53;;;;;;;;;;;4.80;99.90;;;;;;4229775;28;19985;-52
2022/01/20 05:58:55;;;;;;;;;;;4.70;99.90;;;;;;4231994;27;19971;-52
2022/01/20 06:00:56;;;;;;;;;;;4.60;99.90;;;;;;4238073;27;20018;-51
2022/01/20 06:05:21;;;;;;;;;;;4.90;99.90;;;;;;4244057;27;19976;-50
2022/01/20 06:07:23;;;;;;;;;;;4.90;99.90;;;;;;4237137;27;20022;-50
2022/01/20 06:09:25;;;;;;;;;;;4.90;99.90;;;;;;4242400;27;20010;-51
2022/01/20 06:11:26;;;;;;;;;;;4.90;99.90;;;;;;4237938;27;20014;-53
2022/01/20 06:13:28;;;;;;;;;;;4.80;99.90;;;;;;4246020;27;19923;-51
2022/01/20 06:15:30;;;;;;;;;;;4.80;99.90;;;;;;4235496;27;20690;-52
2022/01/20 06:17:35;;;;;;;;;;;4.60;99.90;;;;;;4242494;27;20517;-52
2022/01/20 06:19:37;;;;;;;;;;;4.70;99.90;;;;;;4233503;27;19959;-53
2022/01/20 06:21:41;;;;;;;;;;;4.70;99.90;;;;;;4235777;27;19977;-53
2022/01/20 06:23:43;;;;;;;;;;;4.70;99.90;;;;;;4236586;27;19924;-53
2022/01/20 06:25:45;;;;;;;;;;;4.70;99.90;;;;;;4244953;27;19970;-54
2022/01/20 06:27:48;;;;;;;;;;;4.80;99.90;;;;;;4236721;27;20002;-54
2022/01/20 06:29:50;;;;;;;;;;;4.80;99.90;;;;;;4245770;27;19971;-53
2022/01/20 06:31:52;;;;;;;;;;;4.60;99.90;;;;;;4234443;27;19959;-53
2022/01/20 06:33:54;;;;;;;;;;;4.50;99.90;;;;;;4246837;27;20021;-54
2022/01/20 06:35:56;;;;;;;;;;;4.50;99.90;;;;;;4235248;27;20015;-54
2022/01/20 06:37:58;;;;;;;;;;;4.50;99.90;;;;;;4235559;27;20380;-54
2022/01/20 06:40:00;;;;;;;;;;;4.50;99.90;;;;;;4232672;27;20018;-53
2022/01/20 06:42:02;;;;;;;;;;;4.50;99.90;;;;;;4245025;27;20034;-54
2022/01/20 06:44:05;;;;;;;;;;;4.50;99.90;;;;;;4236447;27;19955;-54
2022/01/20 06:46:07;;;;;;;;;;;4.50;99.90;;;;;;4256507;27;20221;-54
2022/01/20 06:48:09;;;;;;;;;;;4.60;99.90;;;;;;4237192;27;20142;-55
2022/01/20 06:50:11;;;;;;;;;;;4.50;99.90;;;;;;4246245;27;19927;-54
2022/01/20 06:52:13;;;;;;;;;;;4.50;99.90;;;;;;4239187;27;19928;-54
2022/01/20 06:54:16;;;;;;;;;;;4.50;99.90;;;;;;4232670;27;19931;-55
2022/01/20 06:56:18;;;;;;;;;;;4.60;99.90;;;;;;4237576;27;19924;-55
2022/01/20 06:58:39;;;;;;;;;;;4.60;99.90;;;;;;4242717;27;19928;-55
2022/01/20 07:00:41;;;;;;;;;;;4.50;99.90;;;;;;4234143;27;20493;-54
2022/01/20 07:02:44;;;;;;;;;;;4.50;99.90;;;;;;4230752;27;19923;-54
2022/01/20 07:04:47;;;;;;;;;;;4.50;99.90;;;;;;4229991;27;19979;-54
2022/01/20 07:06:49;;;;;;;;;;;4.50;99.90;;;;;;4213721;28;19934;-54
2022/01/20 07:08:51;;;;;;;;;;;4.60;99.90;;;;;;4229515;27;20408;-54
2022/01/20 07:10:53;;;;;;;;;;;4.50;99.90;;;;;;4244248;27;19927;-54
2022/01/20 07:12:55;;;;;;;;;;;4.50;99.90;;;;;;4238315;27;20018;-54
2022/01/20 07:14:57;;;;;;;;;;;4.50;99.90;;;;;;4241970;27;20022;-54
2022/01/20 07:16:59;;;;;;;;;;;4.50;99.90;;;;;;4239744;27;20050;-55
2022/01/20 07:19:01;;;;;;;;;;;4.50;99.90;;;;;;4229567;27;20026;-54
2022/01/20 07:21:03;;;;;;;;;;;4.50;99.90;;;;;;4235408;27;19984;-54
2022/01/20 07:23:05;;;;;;;;;;;4.50;99.90;;;;;;4242895;27;20543;-54
2022/01/20 07:25:08;;;;;;;;;;;4.60;99.90;;;;;;4238419;27;19955;-55
2022/01/20 07:27:09;;;;;;;;;;;4.70;99.90;;;;;;4241687;27;20034;-54
2022/01/20 07:29:11;;;;;;;;;;;4.70;99.90;;;;;;4242357;27;20412;-54
2022/01/20 07:31:16;;;;;;;;;;;4.90;99.90;;;;;;4229135;27;19935;-54
2022/01/20 07:33:19;;;;;;;;;;;4.90;99.90;;;;;;4232748;27;19931;-54
2022/01/20 07:35:21;;;;;;;;;;;5.00;99.90;;;;;;4237265;27;20390;-54
2022/01/20 07:37:23;;;;;;;;;;;4.90;99.90;;;;;;4241187;27;20431;-54
2022/01/20 07:39:25;;;;;;;;;;;4.80;99.90;;;;;;4235728;27;20014;-54
2022/01/20 07:41:27;;;;;;;;;;;4.90;99.90;;;;;;4242891;27;19923;-54
2022/01/20 07:43:29;;;;;;;;;;;5.00;99.90;;;;;;4230247;27;20010;-54
2022/01/20 07:45:31;;;;;;;;;;;5.00;99.90;;;;;;4232420;27;19978;-54
2022/01/20 07:47:34;;;;;;;;;;;5.00;99.90;;;;;;4237551;27;19963;-55
2022/01/20 07:49:36;;;;;;;;;;;4.90;99.90;;;;;;4240906;27;20007;-54
2022/01/20 07:51:38;;;;;;;;;;;4.70;99.90;;;;;;4236554;27;20320;-55
2022/01/20 07:53:40;;;;;;;;;;;4.70;99.90;;;;;;4243764;27;19923;-55
2022/01/20 07:55:42;;;;;;;;;;;4.70;99.90;;;;;;4235432;27;20704;-53
2022/01/20 07:57:44;;;;;;;;;;;4.60;99.90;;;;;;4243114;27;20011;-53
2022/01/20 07:59:46;;;;;;;;;;;4.60;99.90;;;;;;4234833;27;20026;-54
2022/01/20 08:01:49;;;;;;;;;;;4.60;99.90;;;;;;4244764;27;19924;-53
2022/01/20 08:03:52;;;;;;;;;;;4.60;99.90;;;;;;4233979;27;19927;-53
2022/01/20 08:05:54;;;;;;;;;;;4.60;99.90;;;;;;4242834;27;19963;-55
2022/01/20 08:07:56;;;;;;;;;;;4.60;99.90;;;;;;4235880;27;20315;-53
2022/01/20 08:09:58;;;;;;;;;;;4.60;99.90;;;;;;4243117;27;20352;-55
2022/01/20 08:12:01;;;;;;;;;;;4.60;99.90;;;;;;4232366;27;19935;-55
2022/01/20 08:14:05;;;;;;;;;;;4.60;99.90;;;;;;4244072;27;20467;-55
2022/01/20 08:16:07;;;;;;;;;;;4.60;99.90;;;;;;4232503;27;19925;-54
2022/01/20 08:18:09;;;;;;;;;;;4.60;99.90;;;;;;4233958;27;19927;-55
2022/01/20 08:20:11;;;;;;;;;;;4.60;99.90;;;;;;4231140;27;20776;-55
2022/01/20 08:22:13;;;;;;;;;;;4.60;99.90;;;;;;4245394;27;19927;-54
2022/01/20 08:24:34;;;;;;;;;;;4.70;99.90;;;;;;4236453;27;19963;-55
2022/01/20 08:26:36;;;;;;;;;;;4.70;99.90;;;;;;4243805;27;19927;-54
2022/01/20 08:28:38;;;;;;;;;;;4.70;99.90;;;;;;4232524;27;20474;-55
2022/01/20 08:30:41;;;;;;;;;;;4.70;99.90;;;;;;4243667;27;19981;-54
2022/01/20 08:32:43;;;;;;;;;;;4.70;99.90;;;;;;4234167;27;19924;-55
2022/01/20 08:34:45;;;;;;;;;;;4.70;99.90;;;;;;4244718;27;19924;-54
2022/01/20 08:36:49;;;;;;;;;;;4.70;99.90;;;;;;4232285;27;19951;-54
2022/01/20 08:38:51;;;;;;;;;;;4.70;99.90;;;;;;4237603;27;20779;-53
2022/01/20 08:40:53;;;;;;;;;;;4.70;99.90;;;;;;4231468;27;20652;-54
2022/01/20 08:42:55;;;;;;;;;;;4.70;99.90;;;;;;4243998;27;20298;-54
2022/01/20 08:44:57;;;;;;;;;;;4.70;99.90;;;;;;4233052;27;19924;-54
2022/01/20 08:47:01;;;;;;;;;;;4.70;99.90;;;;;;4239146;27;20002;-54
2022/01/20 08:49:03;;;;;;;;;;;4.70;99.90;;;;;;4232847;27;19934;-54
2022/01/20 08:51:06;;;;;;;;;;;4.80;99.90;;;;;;4227147;28;19971;-55
2022/01/20 08:53:08;;;;;;;;;;;4.80;99.90;;;;;;4233387;27;19985;-54
2022/01/20 08:55:10;;;;;;;;;;;4.80;99.90;;;;;;4235821;27;20019;-55
2022/01/20 08:57:12;;;;;;;;;;;4.80;99.90;;;;;;4231037;27;19931;-54
2022/01/20 08:59:13;;;;;;;;;;;4.90;99.90;;;;;;4236371;27;19929;-53
2022/01/20 09:01:15;;;;;;;;;;;4.90;99.90;;;;;;4236012;27;19923;-55
2022/01/20 09:03:18;;;;;;;;;;;4.90;99.90;;;;;;4228814;27;19957;-53
2022/01/20 09:05:20;;;;;;;;;;;4.90;99.90;;;;;;4230596;27;20014;-54
2022/01/20 09:07:22;;;;;;;;;;;4.90;99.90;;;;;;4238936;27;19931;-54
2022/01/20 09:09:23;;;;;;;;;;;4.90;99.90;;;;;;4238232;27;19932;-54
2022/01/20 09:11:34;;;;;;;;;;;4.80;99.90;;;;;;4239210;27;19923;-54
2022/01/20 09:15:57;;;;;;;;;;;4.90;99.90;;;;;;4241839;27;19924;-53
2022/01/20 09:18:07;;;;;;;;;;;4.90;99.90;;;;;;4230204;27;20607;-55
2022/01/20 09:20:09;;;;;;;;;;;4.90;99.90;;;;;;4242525;28;19928;-55
2022/01/20 09:22:12;;;;;;;;;;;4.90;99.90;;;;;;4236395;28;19923;-55
2022/01/20 09:24:14;;;;;;;;;;;4.90;99.90;;;;;;4230070;28;20494;-55
2022/01/20 09:26:16;;;;;;;;;;;4.90;99.90;;;;;;4233870;28;20648;-55
2022/01/20 09:28:19;;;;;;;;;;;4.80;99.90;;;;;;4243723;28;19968;-54
2022/01/20 09:30:22;;;;;;;;;;;4.90;99.90;;;;;;4234656;28;19935;-54
2022/01/20 09:32:27;;;;;;;;;;;4.90;99.90;;;;;;4243017;27;19949;-54
2022/01/20 09:34:29;;;;;;;;;;;5.00;99.90;;;;;;4238343;27;20450;-54
2022/01/20 09:36:31;;;;;;;;;;;5.00;99.90;;;;;;4244780;27;20604;-55
2022/01/20 09:38:33;;;;;;;;;;;5.00;99.90;;;;;;4238993;27;20387;-55
2022/01/20 09:40:35;;;;;;;;;;;5.00;99.90;;;;;;4243794;27;19924;-54
2022/01/20 09:42:38;;;;;;;;;;;5.00;99.90;;;;;;4242719;27;19978;-53
2022/01/20 09:44:47;;;;;;;;;;;5.00;99.90;;;;;;4240448;27;19959;-54
2022/01/20 09:46:49;;;;;;;;;;;5.00;99.90;;;;;;4239961;27;19930;-54
2022/01/20 09:48:51;;;;;;;;;;;5.10;99.90;;;;;;4242834;27;19923;-54
2022/01/20 09:50:53;;;;;;;;;;;5.10;99.90;;;;;;4242463;27;19928;-54
2022/01/20 09:52:58;;;;;;;;;;;5.10;99.90;;;;;;4236535;27;20325;-55
2022/01/20 09:55:00;;;;;;;;;;;5.10;99.90;;;;;;4242932;27;19978;-55
2022/01/20 09:57:02;;;;;;;;;;;5.20;99.90;;;;;;4240065;27;20014;-55
2022/01/20 09:59:04;;;;;;;;;;;5.20;99.90;;;;;;4242628;27;20027;-54
2022/01/20 10:01:06;;;;;;;;;;;5.20;99.90;;;;;;4240883;27;19930;-54
2022/01/20 10:03:12;;;;;;;;;;;5.30;99.90;;;;;;4243773;27;20018;-55
2022/01/20 10:05:22;;;;;;;;;;;5.30;99.90;;;;;;4240645;27;19974;-54
2022/01/20 10:07:30;;;;;;;;;;;5.30;99.90;;;;;;4240978;27;19974;-54
2022/01/20 10:09:39;;;;;;;;;;;5.40;99.90;;;;;;4244060;27;20038;-54
2022/01/20 10:11:41;;;;;;;;;;;5.40;99.90;;;;;;4242712;27;19928;-53
2022/01/20 10:13:43;;;;;;;;;;;5.50;99.90;;;;;;4240458;27;19979;-54
2022/01/20 10:15:54;;;;;;;;;;;5.60;99.90;;;;;;4243477;27;19928;-52
2022/01/20 10:18:03;;;;;;;;;;;5.70;99.90;;;;;;4228472;28;20022;-55
2022/01/20 10:20:07;;;;;;;;;;;5.80;99.90;;;;;;4237060;27;19924;-54
2022/01/20 10:22:16;;;;;;;;;;;6.10;99.90;;;;;;4243547;27;20380;-54
2022/01/20 10:24:18;;;;;;;;;;;6.30;99.90;;;;;;4241903;27;19972;-54
2022/01/20 10:26:21;;;;;;;;;;;6.30;99.90;;;;;;4231655;27;19927;-53
2022/01/20 10:28:23;;;;;;;;;;;6.70;99.90;;;;;;4234088;27;20046;-53
2022/01/20 10:30:26;;;;;;;;;;;6.60;99.90;;;;;;4240309;27;19958;-54
2022/01/20 10:32:38;;;;;;;;;;;6.50;99.90;;;;;;4224508;28;19970;-54
2022/01/20 10:34:40;;;;;;;;;;;6.60;99.90;;;;;;4236524;27;19930;-53
2022/01/20 10:36:51;;;;;;;;;;;6.50;99.90;;;;;;4232060;27;20042;-52
2022/01/20 10:38:55;;;;;;;;;;;6.50;99.90;;;;;;4242921;27;20370;-53
2022/01/20 10:40:59;;;;;;;;;;;6.60;99.90;;;;;;4241884;27;19956;-54
2022/01/20 10:43:01;;;;;;;;;;;6.70;99.90;;;;;;4229120;27;19931;-54
2022/01/20 10:45:03;;;;;;;;;;;6.80;99.90;;;;;;4235933;27;19932;-54
2022/01/20 10:47:05;;;;;;;;;;;6.80;99.90;;;;;;4241074;27;19939;-53
2022/01/20 10:49:07;;;;;;;;;;;6.60;99.90;;;;;;4242686;27;19967;-54
2022/01/20 10:51:16;;;;;;;;;;;6.80;99.90;;;;;;4236099;27;19945;-54
2022/01/20 10:53:21;;;;;;;;;;;7.10;99.90;;;;;;4230233;27;19932;-54
2022/01/20 10:55:26;;;;;;;;;;;7.10;99.90;;;;;;4239032;27;20454;-54
2022/01/20 10:57:32;;;;;;;;;;;6.90;99.90;;;;;;4245645;27;19970;-54
2022/01/20 10:59:35;;;;;;;;;;;7.20;99.90;;;;;;4231812;27;19935;-54
2022/01/20 11:01:37;;;;;;;;;;;7.50;99.90;;;;;;4234203;27;20343;-52
2022/01/20 11:03:39;;;;;;;;;;;7.90;99.90;;;;;;4231530;27;19924;-53
2022/01/20 11:05:44;;;;;;;;;;;7.60;99.90;;;;;;4216446;28;20302;-54
2022/01/20 11:07:48;;;;;;;;;;;7.80;99.90;;;;;;4233927;27;19924;-53
2022/01/20 11:09:56;;;;;;;;;;;7.60;99.90;;;;;;4242991;27;19936;-54
2022/01/20 11:11:59;;;;;;;;;;;7.70;99.90;;;;;;4232878;27;20384;-53
2022/01/20 11:14:01;;;;;;;;;;;8.10;99.90;;;;;;4238072;27;19931;-55
2022/01/20 11:16:03;;;;;;;;;;;7.80;99.90;;;;;;4233882;27;20042;-54
2022/01/20 11:18:05;;;;;;;;;;;7.60;99.90;;;;;;4236176;27;19928;-53
2022/01/20 11:20:07;;;;;;;;;;;7.50;99.90;;;;;;4234122;27;19984;-53
2022/01/20 11:22:11;;;;;;;;;;;7.80;99.90;;;;;;4238098;27;19926;-54
2022/01/20 11:24:21;;;;;;;;;;;8.60;99.90;;;;;;4233360;27;19931;-54
2022/01/20 11:26:23;;;;;;;;;;;8.90;99.90;;;;;;4261444;22;19940;-92
2022/01/20 11:28:25;;;;;;;;;;;9.00;99.90;;;;;;4190029;28;20331;-90
2022/01/20 11:30:29;;;;;;;;;;;8.80;99.90;;;;;;4192279;22;19929;-55
2022/01/20 11:32:33;;;;;;;;;;;8.60;99.90;;;;;;4192450;28;19955;-53
2022/01/20 11:34:35;;;;;;;;;;;8.60;99.90;;;;;;4194015;28;20549;-53
2022/01/20 11:36:37;;;;;;;;;;;8.90;99.90;;;;;;4192183;28;19982;-53
2022/01/20 11:39:00;;;;;;;;;;;9.10;99.90;;;;;;4192256;28;19924;-55
2022/01/20 11:41:03;;;;;;;;;;;9.50;99.90;;;;;;4192980;28;19963;-54
2022/01/20 11:43:09;;;;;;;;;;;9.20;99.90;;;;;;4194728;28;19928;-55
2022/01/20 11:45:28;;;;;;;;;;;9.30;99.90;;;;;;4192890;28;19970;-54
2022/01/20 11:47:32;;;;;;;;;;;9.30;99.90;;;;;;4193050;28;19928;-53
2022/01/20 11:49:38;;;;;;;;;;;9.20;99.90;;;;;;4191743;28;19973;-53
2022/01/20 11:51:44;;;;;;;;;;;8.70;99.90;;;;;;4188479;28;19987;-54
2022/01/20 11:54:08;;;;;;;;;;;8.70;99.90;;;;;;4192149;28;19928;-55
2022/01/20 11:56:26;;;;;;;;;;;8.80;99.90;;;;;;4158449;28;19983;-55
2022/01/20 11:58:36;;;;;;;;;;;8.50;99.90;;;;;;4196013;28;19925;-54
2022/01/20 12:00:38;;;;;;;;;;;8.60;99.90;;;;;;4199871;28;19978;-53
2022/01/20 12:02:40;;;;;;;;;;;8.60;99.90;;;;;;4192973;28;19959;-53
2022/01/20 12:04:43;;;;;;;;;;;8.70;99.90;;;;;;4205387;28;19928;-53
2022/01/20 12:06:47;;;;;;;;;;;8.60;99.90;;;;;;4192260;28;19924;-53
2022/01/20 12:08:54;;;;;;;;;;;8.70;99.90;;;;;;4180924;28;19928;-54
2022/01/20 12:11:00;;;;;;;;;;;8.70;99.90;;;;;;4190874;28;19968;-53
2022/01/20 12:13:09;;;;;;;;;;;8.70;99.90;;;;;;4191416;28;19968;-54
2022/01/20 12:15:15;;;;;;;;;;;8.80;99.90;;;;;;4191555;28;19932;-53
2022/01/20 12:17:24;;;;;;;;;;;8.50;99.90;;;;;;4193969;28;20399;-54
2022/01/20 12:19:40;;;;;;;;;;;8.40;99.90;;;;;;4189428;28;19924;-53
2022/01/20 12:21:47;;;;;;;;;;;8.60;99.90;;;;;;4194580;28;19932;-54
2022/01/20 12:23:50;;;;;;;;;;;8.60;99.90;;;;;;4192595;28;19974;-53
2022/01/20 12:26:00;;;;;;;;;;;8.40;99.90;;;;;;4193898;28;19975;-53
2022/01/20 12:28:07;;;;;;;;;;;8.30;99.90;;;;;;4191793;28;19932;-54
2022/01/20 12:30:16;;;;;;;;;;;8.10;99.90;;;;;;4175586;28;19935;-53
2022/01/20 12:32:19;;;;;;;;;;;8.30;99.90;;;;;;4176989;28;19933;-54
2022/01/20 12:34:21;;;;;;;;;;;8.50;99.90;;;;;;4181270;28;19925;-54
2022/01/20 12:36:23;;;;;;;;;;;8.60;99.90;;;;;;4175061;28;20423;-54
2022/01/20 12:38:35;;;;;;;;;;;8.90;99.90;;;;;;4176029;28;19929;-55
2022/01/20 12:40:37;;;;;;;;;;;8.70;99.90;;;;;;4176233;28;20394;-56
2022/01/20 12:42:42;;;;;;;;;;;8.70;99.90;;;;;;4176621;28;19925;-56
2022/01/20 12:47:05;;;;;;;;;;;8.60;99.90;;;;;;4176333;28;20011;-56
2022/01/20 12:49:11;;;;;;;;;;;8.50;99.90;;;;;;4175085;28;19983;-56
2022/01/20 12:51:13;;;;;;;;;;;8.40;99.90;;;;;;4176666;28;19929;-55
2022/01/20 12:53:17;;;;;;;;;;;8.60;99.90;;;;;;4174833;28;20340;-56
2022/01/20 12:55:20;;;;;;;;;;;8.60;99.90;;;;;;4176039;28;19936;-57
2022/01/20 12:57:22;;;;;;;;;;;8.50;99.90;;;;;;4176620;28;20007;-56
2022/01/20 12:59:28;;;;;;;;;;;8.10;99.90;;;;;;4174021;28;20020;-56
2022/01/20 13:01:44;;;;;;;;;;;8.10;99.90;;;;;;4175243;28;19925;-57
2022/01/20 13:03:46;;;;;;;;;;;8.30;99.90;;;;;;4176724;28;20141;-56
2022/01/20 13:05:51;;;;;;;;;;;8.40;99.90;;;;;;4175102;28;19939;-56
2022/01/20 13:07:53;;;;;;;;;;;8.30;99.90;;;;;;4176098;28;19925;-56
2022/01/20 13:10:31;;;;;;;;;;;8.00;99.90;;;;;;4175091;28;19971;-55
2022/01/20 13:12:35;;;;;;;;;;;8.10;99.90;;;;;;4171920;28;19956;-56